Time;durP1;ratioP1;P1;durP2;ratioP2;P2;SDS_P1;SDS_P2;PMS_P1;PMS_P2;Temp;Humidity;BMP_temperature;BMP_pressure;BME280_temperature;BME280_humidity;BME280_pressure;Samples;Min_cycle;Max_cycle;Signal;HPM_P1;HPM_P2
2021/12/25 00:01:21;;;;;;;1.20;0.43;;;-1.60;99.90;;;;;;5027267;28;20209;-70
2021/12/25 00:03:48;;;;;;;2.33;0.47;;;-1.70;99.90;;;;;;5027728;28;20257;-70
2021/12/25 00:06:16;;;;;;;3.13;0.50;;;-1.80;99.90;;;;;;5027714;28;20211;-70
2021/12/25 00:08:42;;;;;;;0.40;0.40;;;-1.80;99.90;;;;;;5027778;28;20238;-70
2021/12/25 00:11:16;;;;;;;1.40;0.60;;;-1.80;99.90;;;;;;5027615;28;20219;-70
2021/12/25 00:13:43;;;;;;;0.77;0.40;;;-1.80;99.90;;;;;;5027689;28;20238;-70
2021/12/25 00:16:13;;;;;;;1.17;0.60;;;-1.70;99.90;;;;;;5027339;28;20822;-70
2021/12/25 00:18:40;;;;;;;0.60;0.40;;;-1.70;99.90;;;;;;5027643;28;20246;-70
2021/12/25 00:21:13;;;;;;;0.87;0.50;;;-1.70;99.90;;;;;;5027387;28;20728;-70
2021/12/25 00:23:39;;;;;;;2.20;0.67;;;-1.70;99.90;;;;;;5027555;28;20708;-70
2021/12/25 00:26:36;;;;;;;0.47;0.27;;;-1.70;99.90;;;;;;5027532;28;20212;-70
2021/12/25 00:29:18;;;;;;;0.47;0.30;;;-1.70;99.90;;;;;;5027470;28;20659;-70
2021/12/25 00:31:51;;;;;;;1.30;0.50;;;-1.80;99.90;;;;;;5027464;28;20608;-70
2021/12/25 00:34:22;;;;;;;0.60;0.23;;;-1.70;99.90;;;;;;5022549;28;20206;-70
2021/12/25 00:36:49;;;;;;;0.27;0.17;;;-1.80;99.90;;;;;;5028069;28;20236;-70
2021/12/25 00:39:15;;;;;;;0.53;0.30;;;-1.70;99.90;;;;;;5031163;28;20254;-69
2021/12/25 00:41:43;;;;;;;0.80;0.53;;;-1.70;99.90;;;;;;5031049;28;20201;-70
2021/12/25 00:44:10;;;;;;;0.47;0.47;;;-1.70;99.90;;;;;;5030766;28;20205;-70
2021/12/25 00:46:36;;;;;;;1.00;0.50;;;-1.70;99.90;;;;;;5030950;28;20676;-72
2021/12/25 00:49:03;;;;;;;0.63;0.50;;;-1.80;99.90;;;;;;5030940;28;20234;-71
2021/12/25 00:51:30;;;;;;;0.40;0.40;;;-1.90;99.90;;;;;;5030508;28;20225;-70
2021/12/25 00:53:56;;;;;;;1.10;0.60;;;-2.00;99.90;;;;;;5023352;28;20226;-71
2021/12/25 00:56:23;;;;;;;1.73;0.57;;;-2.10;99.90;;;;;;5010711;28;20685;-71
2021/12/25 00:58:51;;;;;;;0.73;0.30;;;-2.20;99.90;;;;;;5010803;28;20735;-73
2021/12/25 01:01:18;;;;;;;0.60;0.50;;;-2.30;99.90;;;;;;5011163;28;20239;-72
2021/12/25 01:03:45;;;;;;;0.40;0.40;;;-2.40;99.90;;;;;;5010955;28;20207;-73
2021/12/25 01:06:11;;;;;;;0.93;0.40;;;-2.40;99.90;;;;;;5010541;28;20799;-72
2021/12/25 01:08:38;;;;;;;1.07;0.90;;;-2.30;99.90;;;;;;5010748;28;20268;-72
2021/12/25 01:11:10;;;;;;;1.13;1.03;;;-2.30;99.90;;;;;;5010723;28;20211;-72
2021/12/25 01:13:43;;;;;;;1.20;1.00;;;-2.40;99.90;;;;;;5010413;28;20734;-72
2021/12/25 01:16:25;;;;;;;1.53;0.87;;;-2.40;99.90;;;;;;5010615;28;20210;-70
2021/12/25 01:19:27;;;;;;;1.33;1.00;;;-2.40;99.90;;;;;;5010864;28;20573;-70
2021/12/25 01:22:04;;;;;;;0.77;0.60;;;-2.50;99.90;;;;;;5010545;28;20211;-71
2021/12/25 01:24:48;;;;;;;1.23;0.60;;;-2.50;99.90;;;;;;5010730;28;20249;-70
2021/12/25 01:27:50;;;;;;;0.63;0.30;;;-2.50;99.90;;;;;;5010833;28;20208;-70
2021/12/25 01:30:20;;;;;;;0.50;0.50;;;-2.50;99.90;;;;;;5009955;28;20758;-72
2021/12/25 01:33:17;;;;;;;1.40;0.70;;;-2.40;99.90;;;;;;5010722;28;20197;-72
2021/12/25 01:36:12;;;;;;;0.90;0.60;;;-2.40;99.90;;;;;;5010552;28;20196;-72
2021/12/25 01:38:53;;;;;;;0.80;0.50;;;-2.30;99.90;;;;;;5010020;28;20733;-71
2021/12/25 01:41:42;;;;;;;0.40;0.40;;;-2.30;99.90;;;;;;5010213;28;20206;-71
2021/12/25 01:49:39;;;;;;;0.40;0.40;;;-2.30;99.90;;;;;;5010208;28;20236;-70
2021/12/25 01:52:07;;;;;;;0.67;0.40;;;-2.30;99.90;;;;;;5010150;28;20280;-70
2021/12/25 01:54:34;;;;;;;0.80;0.43;;;-2.30;99.90;;;;;;5010297;28;20285;-70
2021/12/25 01:57:01;;;;;;;0.50;0.50;;;-2.20;99.90;;;;;;5009889;28;20252;-68
2021/12/25 01:59:28;;;;;;;0.63;0.50;;;-2.30;99.90;;;;;;5010195;28;20215;-72
2021/12/25 02:01:55;;;;;;;0.80;0.60;;;-2.30;99.90;;;;;;5009784;28;20207;-71
2021/12/25 02:04:22;;;;;;;1.07;0.60;;;-2.30;99.90;;;;;;5009888;28;20734;-69
2021/12/25 02:06:50;;;;;;;0.80;0.60;;;-2.30;99.90;;;;;;5010019;28;20225;-69
2021/12/25 02:09:17;;;;;;;0.73;0.70;;;-2.30;99.90;;;;;;5009392;28;20757;-69
2021/12/25 02:11:44;;;;;;;0.80;0.80;;;-2.30;99.90;;;;;;5009724;28;20242;-69
2021/12/25 02:14:11;;;;;;;0.73;0.73;;;-2.30;99.90;;;;;;5015581;28;20677;-69
2021/12/25 02:16:53;;;;;;;0.80;0.80;;;-2.40;99.90;;;;;;5029401;28;20209;-69
2021/12/25 02:19:32;;;;;;;1.87;0.70;;;-2.40;99.90;;;;;;5029565;28;20198;-69
2021/12/25 02:22:02;;;;;;;0.60;0.60;;;-2.40;99.90;;;;;;5029397;28;20191;-70
2021/12/25 02:24:29;;;;;;;0.70;0.70;;;-2.50;99.90;;;;;;5029166;28;20560;-70
2021/12/25 02:26:56;;;;;;;1.20;1.10;;;-2.50;99.90;;;;;;5028844;28;20280;-70
2021/12/25 02:29:23;;;;;;;0.80;0.77;;;-2.50;99.90;;;;;;5028869;28;20307;-70
2021/12/25 02:31:50;;;;;;;1.90;1.00;;;-2.50;99.90;;;;;;5029007;28;20217;-71
2021/12/25 02:34:17;;;;;;;0.90;0.67;;;-2.50;99.90;;;;;;5028833;28;20559;-71
2021/12/25 02:36:43;;;;;;;0.90;0.90;;;-2.50;99.90;;;;;;5028969;28;20241;-71
2021/12/25 02:39:11;;;;;;;2.13;0.77;;;-2.50;99.90;;;;;;5029339;28;20201;-72
2021/12/25 02:41:38;;;;;;;0.70;0.70;;;-2.50;99.90;;;;;;5029261;28;20205;-71
2021/12/25 02:44:06;;;;;;;0.87;0.70;;;-2.50;99.90;;;;;;5028698;28;20206;-71
2021/12/25 02:46:33;;;;;;;1.30;0.90;;;-2.50;99.90;;;;;;5028995;28;20204;-70
2021/12/25 02:49:00;;;;;;;1.00;0.80;;;-2.50;99.90;;;;;;5028637;28;20229;-69
2021/12/25 02:51:26;;;;;;;0.80;0.80;;;-2.60;99.90;;;;;;5028456;28;20647;-69
2021/12/25 02:53:53;;;;;;;0.80;0.80;;;-2.60;99.90;;;;;;5028697;28;20831;-69
2021/12/25 02:56:21;;;;;;;0.83;0.77;;;-2.70;99.90;;;;;;5028667;28;20208;-70
2021/12/25 02:58:48;;;;;;;1.00;0.63;;;-2.70;99.90;;;;;;5028516;28;20536;-70
2021/12/25 03:01:17;;;;;;;1.37;1.10;;;-2.70;99.90;;;;;;5028154;28;20313;-70
2021/12/25 03:03:44;;;;;;;0.77;0.73;;;-2.70;99.90;;;;;;5028680;28;20256;-70
2021/12/25 03:06:12;;;;;;;7.47;2.03;;;-2.70;99.90;;;;;;5028526;28;20206;-70
2021/12/25 03:08:40;;;;;;;1.10;1.03;;;-2.70;99.90;;;;;;5028390;28;20614;-70
2021/12/25 03:11:13;;;;;;;0.70;0.70;;;-2.80;99.90;;;;;;5028465;28;20316;-70
2021/12/25 03:13:45;;;;;;;1.33;0.90;;;-2.80;99.90;;;;;;5028399;28;20739;-70
2021/12/25 03:16:14;;;;;;;1.90;0.70;;;-2.80;99.90;;;;;;5028134;28;20572;-70
2021/12/25 03:18:46;;;;;;;1.70;0.80;;;-2.80;99.90;;;;;;5028422;28;20794;-70
2021/12/25 03:21:13;;;;;;;4.00;1.10;;;-2.80;99.90;;;;;;5028573;28;20232;-70
2021/12/25 03:23:41;;;;;;;3.20;0.83;;;-2.90;99.90;;;;;;5028409;28;20208;-70
2021/12/25 03:26:12;;;;;;;1.30;1.00;;;-2.90;99.90;;;;;;5028365;28;20267;-70
2021/12/25 03:28:43;;;;;;;1.87;1.10;;;-2.90;99.90;;;;;;5028044;28;20283;-70
2021/12/25 03:31:16;;;;;;;1.30;1.20;;;-3.00;99.90;;;;;;5028186;28;20201;-70
2021/12/25 03:33:44;;;;;;;1.20;1.20;;;-3.00;99.90;;;;;;5028117;28;20201;-70
2021/12/25 03:36:11;;;;;;;2.23;1.00;;;-3.00;99.90;;;;;;5027827;28;20664;-70
2021/12/25 03:38:38;;;;;;;0.80;0.80;;;-3.00;99.90;;;;;;5027941;28;20283;-70
2021/12/25 03:41:11;;;;;;;0.83;0.83;;;-3.00;99.90;;;;;;5028035;28;20213;-70
2021/12/25 03:43:39;;;;;;;1.10;1.00;;;-3.00;99.90;;;;;;5028358;28;20238;-70
2021/12/25 03:46:12;;;;;;;0.90;0.90;;;-3.10;99.90;;;;;;5027705;28;20201;-69
2021/12/25 03:49:05;;;;;;;1.20;1.10;;;-3.10;99.90;;;;;;5027768;28;20216;-70
2021/12/25 03:59:53;;;;;;;0.50;0.50;;;-3.20;99.90;;;;;;5027612;28;20307;-71
2021/12/25 04:02:27;;;;;;;1.43;1.00;;;-3.40;99.90;;;;;;5027778;28;20193;-71
2021/12/25 04:04:56;;;;;;;1.40;1.30;;;-3.50;99.90;;;;;;5027672;28;20237;-72
2021/12/25 04:07:47;;;;;;;1.50;1.00;;;-3.50;99.90;;;;;;5027762;28;20213;-71
2021/12/25 04:10:13;;;;;;;1.57;1.10;;;-3.50;99.90;;;;;;5027966;28;20229;-69
2021/12/25 04:12:40;;;;;;;1.37;1.13;;;-3.40;99.90;;;;;;5031788;28;20225;-69
2021/12/25 04:15:07;;;;;;;1.23;0.70;;;-3.40;99.90;;;;;;5031323;28;20214;-69
2021/12/25 04:17:35;;;;;;;1.13;0.80;;;-3.50;99.90;;;;;;5031540;28;20614;-69
2021/12/25 04:20:03;;;;;;;0.90;0.90;;;-3.50;99.90;;;;;;5031655;28;20629;-69
2021/12/25 04:22:37;;;;;;;0.90;0.80;;;-3.60;99.90;;;;;;5031771;28;20297;-70
2021/12/25 04:25:04;;;;;;;1.43;1.20;;;-3.50;99.90;;;;;;5031656;28;20226;-70
2021/12/25 04:27:32;;;;;;;0.80;0.77;;;-3.50;99.90;;;;;;5031252;28;20741;-70
2021/12/25 04:30:03;;;;;;;0.97;0.60;;;-3.50;99.90;;;;;;5031334;28;20283;-69
2021/12/25 04:33:07;;;;;;;0.90;0.83;;;-3.50;99.90;;;;;;5031468;28;20205;-69
2021/12/25 05:02:59;;;;;;;0.90;0.87;;;-3.40;99.90;;;;;;5030809;28;20240;-70
2021/12/25 05:05:26;;;;;;;1.10;0.63;;;-3.50;99.90;;;;;;5030931;28;20205;-71
2021/12/25 05:07:54;;;;;;;0.43;0.43;;;-3.50;99.90;;;;;;5031162;28;20275;-71
2021/12/25 05:10:20;;;;;;;0.53;0.53;;;-3.50;99.90;;;;;;5031074;28;20228;-69
2021/12/25 05:12:47;;;;;;;0.43;0.43;;;-3.50;99.90;;;;;;5030715;28;20287;-69
2021/12/25 05:15:14;;;;;;;0.70;0.60;;;-3.50;99.90;;;;;;5030719;28;20261;-69
2021/12/25 05:17:40;;;;;;;4.47;0.70;;;-3.50;99.90;;;;;;5030725;28;20266;-70
2021/12/25 05:20:08;;;;;;;0.70;0.70;;;-3.40;99.90;;;;;;5030776;28;20618;-70
2021/12/25 05:22:35;;;;;;;0.70;0.70;;;-3.50;99.90;;;;;;5029802;28;20205;-70
2021/12/25 05:25:03;;;;;;;1.50;0.70;;;-3.50;99.90;;;;;;5030399;28;20201;-70
2021/12/25 05:27:32;;;;;;;1.23;0.80;;;-3.50;99.90;;;;;;5030278;28;20228;-70
2021/12/25 05:29:59;;;;;;;1.50;0.70;;;-3.50;99.90;;;;;;5030429;28;20283;-70
2021/12/25 05:32:25;;;;;;;0.50;0.50;;;-3.60;99.90;;;;;;5030391;28;20208;-70
2021/12/25 05:34:52;;;;;;;0.83;0.60;;;-3.60;99.90;;;;;;5030596;28;20220;-70
2021/12/25 05:37:19;;;;;;;1.30;0.60;;;-3.60;99.90;;;;;;5030058;28;20734;-70
2021/12/25 05:39:50;;;;;;;0.80;0.80;;;-3.50;99.90;;;;;;5030137;28;20660;-70
2021/12/25 05:42:20;;;;;;;0.67;0.60;;;-3.60;99.90;;;;;;5029968;28;20683;-69
2021/12/25 05:44:47;;;;;;;0.70;0.70;;;-3.50;99.90;;;;;;5029660;28;20573;-69
2021/12/25 05:47:13;;;;;;;0.90;0.90;;;-3.60;99.90;;;;;;5029764;28;20213;-68
2021/12/25 05:49:42;;;;;;;1.23;1.13;;;-3.60;99.90;;;;;;5029774;28;20236;-69
2021/12/25 05:52:09;;;;;;;6.43;5.93;;;-3.70;99.90;;;;;;5029165;28;20804;-68
2021/12/25 05:54:36;;;;;;;5.57;4.30;;;-3.80;99.90;;;;;;5029944;28;20282;-70
2021/12/25 05:57:04;;;;;;;2.13;2.03;;;-3.80;99.90;;;;;;5029978;28;20271;-71
2021/12/25 05:59:31;;;;;;;1.20;1.17;;;-3.80;99.90;;;;;;5029948;28;20208;-71
2021/12/25 06:01:58;;;;;;;1.57;1.27;;;-3.80;99.90;;;;;;5029787;28;20258;-71
2021/12/25 06:04:25;;;;;;;2.10;0.90;;;-3.90;99.90;;;;;;5029532;28;20689;-71
2021/12/25 06:06:52;;;;;;;2.10;0.80;;;-4.00;99.90;;;;;;5029908;28;20263;-70
2021/12/25 06:09:20;;;;;;;2.10;1.00;;;-4.00;99.90;;;;;;5029954;28;20217;-70
2021/12/25 06:11:47;;;;;;;0.77;0.77;;;-4.10;99.90;;;;;;5029452;28;20695;-70
2021/12/25 06:14:18;;;;;;;0.90;0.90;;;-4.20;99.90;;;;;;5029502;28;20216;-70
2021/12/25 06:16:47;;;;;;;1.70;1.20;;;-4.20;99.90;;;;;;5029991;28;20208;-69
2021/12/25 06:19:14;;;;;;;1.53;1.20;;;-4.30;99.90;;;;;;5029386;28;20209;-70
2021/12/25 06:21:42;;;;;;;1.70;1.50;;;-4.50;99.90;;;;;;5029547;28;20212;-70
2021/12/25 06:24:09;;;;;;;1.80;0.93;;;-4.50;99.90;;;;;;5029214;28;20664;-70
2021/12/25 06:26:39;;;;;;;1.30;0.83;;;-4.40;99.90;;;;;;5029318;28;20209;-71
2021/12/25 06:29:06;;;;;;;0.60;0.60;;;-4.40;99.90;;;;;;5029660;28;20213;-70
2021/12/25 06:31:33;;;;;;;1.20;1.00;;;-4.50;99.90;;;;;;5029353;28;20296;-70
2021/12/25 06:34:03;;;;;;;0.80;0.80;;;-4.50;99.90;;;;;;5029239;28;20210;-70
2021/12/25 06:36:30;;;;;;;0.93;0.67;;;-4.40;99.90;;;;;;5029187;28;20197;-70
2021/12/25 06:38:56;;;;;;;0.70;0.70;;;-4.40;99.90;;;;;;5028982;28;20613;-70
2021/12/25 06:41:23;;;;;;;2.10;1.37;;;-4.30;99.90;;;;;;5028901;28;20679;-70
2021/12/25 06:43:50;;;;;;;1.70;1.20;;;-4.20;99.90;;;;;;5028758;28;20659;-71
2021/12/25 06:46:22;;;;;;;1.93;1.47;;;-4.30;99.90;;;;;;5028548;28;20687;-70
2021/12/25 06:48:49;;;;;;;1.23;1.13;;;-4.30;99.90;;;;;;5028880;28;20644;-70
2021/12/25 06:51:34;;;;;;;1.10;0.90;;;-4.30;99.90;;;;;;5028850;28;20237;-70
2021/12/25 06:54:02;;;;;;;1.83;0.83;;;-4.30;99.90;;;;;;5028673;28;20211;-70
2021/12/25 06:56:28;;;;;;;0.97;0.87;;;-4.20;99.90;;;;;;5028650;28;20684;-70
2021/12/25 06:58:55;;;;;;;1.67;0.90;;;-4.30;99.90;;;;;;5028765;28;20209;-70
2021/12/25 07:01:22;;;;;;;0.80;0.80;;;-4.40;99.90;;;;;;5028756;28;20213;-70
2021/12/25 07:03:48;;;;;;;1.10;0.87;;;-4.40;99.90;;;;;;5028762;28;20602;-70
2021/12/25 07:06:18;;;;;;;1.43;1.23;;;-4.40;99.90;;;;;;5028556;28;20211;-70
2021/12/25 07:08:46;;;;;;;1.37;0.90;;;-4.30;99.90;;;;;;5028325;28;20706;-69
2021/12/25 07:11:19;;;;;;;2.23;1.17;;;-4.30;99.90;;;;;;5028357;28;20297;-69
2021/12/25 07:13:47;;;;;;;0.83;0.83;;;-4.20;99.90;;;;;;5028531;28;20215;-69
2021/12/25 07:16:20;;;;;;;1.00;1.00;;;-4.20;99.90;;;;;;5028209;28;20204;-69
2021/12/25 07:18:47;;;;;;;2.27;0.97;;;-4.20;99.90;;;;;;5028091;28;20730;-69
2021/12/25 07:21:22;;;;;;;1.30;0.80;;;-4.20;99.90;;;;;;5028355;28;20271;-69
2021/12/25 07:23:50;;;;;;;1.00;1.00;;;-4.10;99.90;;;;;;5028278;28;20271;-69
2021/12/25 07:26:19;;;;;;;1.93;1.17;;;-4.10;99.90;;;;;;5028002;28;20209;-69
2021/12/25 07:28:46;;;;;;;0.90;0.90;;;-4.10;99.90;;;;;;5027966;28;20656;-69
2021/12/25 07:31:27;;;;;;;1.27;1.10;;;-4.00;99.90;;;;;;5027789;28;20734;-69
2021/12/25 07:33:53;;;;;;;2.73;1.50;;;-3.90;99.90;;;;;;5028712;28;20204;-70
2021/12/25 07:36:24;;;;;;;2.07;1.60;;;-3.80;99.90;;;;;;5027852;28;20274;-70
2021/12/25 07:38:53;;;;;;;1.67;1.33;;;-3.70;99.90;;;;;;5028305;28;20570;-70
2021/12/25 07:41:20;;;;;;;1.40;1.30;;;-3.60;99.90;;;;;;5028232;28;20213;-69
2021/12/25 07:43:46;;;;;;;1.53;1.43;;;-3.50;99.90;;;;;;5028173;28;20213;-70
2021/12/25 07:46:23;;;;;;;1.73;1.10;;;-3.30;99.90;;;;;;5027616;28;20239;-70
2021/12/25 07:48:52;;;;;;;1.10;0.90;;;-3.40;99.90;;;;;;5028131;28;20238;-70
2021/12/25 07:51:20;;;;;;;1.37;0.70;;;-3.50;99.90;;;;;;5027883;28;20607;-69
2021/12/25 07:53:47;;;;;;;1.50;0.93;;;-3.50;99.90;;;;;;5027852;28;20660;-69
2021/12/25 07:56:34;;;;;;;0.73;0.73;;;-3.60;99.90;;;;;;5027713;28;20210;-69
2021/12/25 07:59:00;;;;;;;0.60;0.60;;;-3.60;99.90;;;;;;5028045;28;20541;-69
2021/12/25 08:01:28;;;;;;;0.90;0.90;;;-3.70;99.90;;;;;;5027702;28;20208;-70
2021/12/25 08:03:54;;;;;;;1.67;0.90;;;-3.70;99.90;;;;;;5027800;28;20282;-70
2021/12/25 08:06:21;;;;;;;0.90;0.90;;;-3.70;99.90;;;;;;5027861;28;20216;-69
2021/12/25 08:08:50;;;;;;;0.90;0.90;;;-3.70;99.90;;;;;;5027745;28;20270;-69
2021/12/25 08:11:22;;;;;;;1.30;1.00;;;-3.70;99.90;;;;;;5027085;28;20258;-70
2021/12/25 08:13:50;;;;;;;1.70;1.07;;;-3.70;99.90;;;;;;5027674;28;20263;-70
2021/12/25 08:16:17;;;;;;;1.30;1.20;;;-3.70;99.90;;;;;;5027093;28;20691;-69
2021/12/25 08:18:44;;;;;;;2.97;2.77;;;-3.70;99.90;;;;;;5027905;28;20252;-70
2021/12/25 08:21:22;;;;;;;5.23;2.70;;;-3.60;99.90;;;;;;5027541;28;20671;-70
2021/12/25 08:23:49;;;;;;;2.90;2.70;;;-3.60;99.90;;;;;;5027709;28;20208;-69
2021/12/25 08:26:28;;;;;;;3.83;2.27;;;-3.60;99.90;;;;;;5027308;28;20230;-69
2021/12/25 08:28:56;;;;;;;3.77;3.47;;;-3.70;99.90;;;;;;5027599;28;20258;-70
2021/12/25 08:31:23;;;;;;;4.80;3.70;;;-3.70;99.90;;;;;;5027451;28;20291;-70
2021/12/25 08:33:50;;;;;;;3.83;3.43;;;-3.70;99.90;;;;;;5027361;28;20729;-71
2021/12/25 08:36:22;;;;;;;3.60;2.30;;;-3.70;99.90;;;;;;5027594;28;20209;-70
2021/12/25 08:38:49;;;;;;;3.10;2.60;;;-3.90;99.90;;;;;;5027562;28;20205;-70
2021/12/25 08:41:30;;;;;;;2.30;2.20;;;-3.90;99.90;;;;;;5027498;28;20216;-70
2021/12/25 08:44:05;;;;;;;2.10;1.90;;;-3.80;99.90;;;;;;5027407;28;20204;-69
2021/12/25 08:46:44;;;;;;;2.00;1.90;;;-3.70;99.90;;;;;;5026998;28;20657;-70
2021/12/25 08:49:16;;;;;;;2.20;2.00;;;-3.60;99.90;;;;;;5026947;28;20703;-71
2021/12/25 08:51:43;;;;;;;3.70;1.70;;;-3.50;99.90;;;;;;5027145;28;20731;-70
2021/12/25 08:54:10;;;;;;;1.50;1.40;;;-3.40;99.90;;;;;;5027190;28;20593;-71
2021/12/25 08:56:37;;;;;;;1.43;1.33;;;-3.40;99.90;;;;;;5027685;28;20268;-71
2021/12/25 08:59:05;;;;;;;1.53;1.43;;;-3.30;99.90;;;;;;5030422;28;20268;-71
2021/12/25 09:01:37;;;;;;;0.80;0.80;;;-3.30;99.90;;;;;;5030951;28;20685;-69
2021/12/25 09:04:05;;;;;;;1.47;1.37;;;-3.20;99.90;;;;;;5030777;28;20332;-71
2021/12/25 09:06:33;;;;;;;1.70;1.60;;;-3.10;99.90;;;;;;5031186;28;20986;-71
2021/12/25 09:08:59;;;;;;;2.73;1.63;;;-3.00;99.90;;;;;;5030957;28;20235;-71
2021/12/25 09:11:26;;;;;;;1.47;1.37;;;-3.00;99.90;;;;;;5030779;28;20312;-71
2021/12/25 09:13:53;;;;;;;1.93;1.50;;;-2.80;99.90;;;;;;5030840;28;20212;-71
2021/12/25 09:16:27;;;;;;;2.30;1.50;;;-2.90;99.90;;;;;;5030791;28;20211;-71
2021/12/25 09:18:54;;;;;;;1.60;1.50;;;-2.90;99.90;;;;;;5030790;28;20214;-69
2021/12/25 09:21:33;;;;;;;1.40;1.30;;;-2.70;99.90;;;;;;5030777;28;20207;-69
2021/12/25 09:24:00;;;;;;;2.20;1.47;;;-2.50;99.90;;;;;;5030437;28;20197;-69
2021/12/25 09:26:27;;;;;;;1.37;1.00;;;-2.40;99.90;;;;;;5030511;28;20225;-69
2021/12/25 09:28:54;;;;;;;6.10;4.07;;;-2.40;99.90;;;;;;5030448;28;20217;-70
2021/12/25 09:31:26;;;;;;;7.27;4.07;;;-2.40;99.90;;;;;;5030234;28;20240;-73
2021/12/25 09:33:53;;;;;;;4.13;2.97;;;-2.40;99.90;;;;;;5030084;28;20652;-69
2021/12/25 09:36:45;;;;;;;1.30;1.20;;;-2.30;99.90;;;;;;5030230;28;20292;-70
2021/12/25 09:39:11;;;;;;;2.70;1.13;;;-2.30;99.90;;;;;;5029637;28;20241;-69
2021/12/25 09:41:38;;;;;;;1.70;1.20;;;-2.20;99.90;;;;;;5020842;28;20610;-69
2021/12/25 09:44:06;;;;;;;2.27;1.60;;;-2.10;99.90;;;;;;5027322;28;20569;-69
2021/12/25 09:46:35;;;;;;;2.07;1.03;;;-2.10;99.90;;;;;;5028258;28;20212;-69
2021/12/25 09:49:02;;;;;;;6.47;3.60;;;-2.00;99.90;;;;;;5028368;28;20394;-69
2021/12/25 09:51:28;;;;;;;2.33;1.90;;;-1.90;99.90;;;;;;5028318;28;20237;-68
2021/12/25 09:53:57;;;;;;;2.30;2.10;;;-1.70;99.90;;;;;;5027787;28;20695;-69
2021/12/25 09:56:24;;;;;;;2.00;1.80;;;-1.60;99.90;;;;;;5028614;28;20204;-68
2021/12/25 09:58:51;;;;;;;1.93;1.40;;;-1.50;99.90;;;;;;5027057;28;20208;-70
2021/12/25 10:01:36;;;;;;;1.20;1.10;;;-1.50;99.90;;;;;;5029085;28;20671;-70
2021/12/25 10:04:03;;;;;;;1.77;1.10;;;-1.40;99.90;;;;;;5024667;28;20197;-70
2021/12/25 10:06:31;;;;;;;0.90;0.90;;;-1.30;99.90;;;;;;5020923;28;20266;-70
2021/12/25 10:08:58;;;;;;;1.40;1.30;;;-1.20;99.90;;;;;;5009647;28;20216;-70
2021/12/25 10:11:36;;;;;;;3.67;1.63;;;-1.10;99.90;;;;;;5014245;28;20268;-70
2021/12/25 10:14:03;;;;;;;1.60;1.40;;;-1.20;99.90;;;;;;5029082;28;20286;-70
2021/12/25 10:16:31;;;;;;;1.57;1.27;;;-1.20;99.90;;;;;;5029705;28;20212;-71
2021/12/25 10:19:16;;;;;;;1.47;1.37;;;-1.10;99.90;;;;;;5028484;28;20207;-70
2021/12/25 10:21:43;;;;;;;3.00;1.87;;;-1.00;99.90;;;;;;5028553;28;20196;-70
2021/12/25 10:24:15;;;;;;;1.73;1.63;;;-0.90;99.90;;;;;;5028010;28;20251;-70
2021/12/25 10:26:46;;;;;;;2.03;1.90;;;-0.60;99.90;;;;;;5028866;28;20224;-70
2021/12/25 10:29:18;;;;;;;1.80;1.53;;;-0.50;99.90;;;;;;5029576;28;20193;-69
2021/12/25 10:31:45;;;;;;;2.60;1.80;;;-0.40;99.90;;;;;;5029302;28;20641;-70
2021/12/25 10:34:17;;;;;;;3.17;2.73;;;-0.40;99.90;;;;;;5029428;28;20217;-70
2021/12/25 10:36:44;;;;;;;1.90;1.53;;;-0.30;99.90;;;;;;5029320;28;20727;-70
2021/12/25 10:39:13;;;;;;;2.27;1.30;;;-0.40;99.90;;;;;;5028795;28;20232;-70
2021/12/25 10:41:42;;;;;;;1.70;1.20;;;-0.30;99.90;;;;;;5029200;28;20205;-69
2021/12/25 10:44:16;;;;;;;1.53;1.43;;;-0.10;99.90;;;;;;5028754;28;20634;-71
2021/12/25 10:46:53;;;;;;;1.97;1.73;;;-0.10;99.90;;;;;;5029216;28;20258;-70
2021/12/25 10:49:22;;;;;;;2.17;1.60;;;0.10;99.90;;;;;;5028588;28;20695;-70
2021/12/25 10:51:49;;;;;;;2.37;2.07;;;0.10;99.90;;;;;;5028819;28;20961;-70
2021/12/25 10:54:18;;;;;;;1.83;1.30;;;0.20;99.90;;;;;;5028935;28;20201;-70
2021/12/25 10:56:48;;;;;;;1.83;1.50;;;0.20;99.90;;;;;;5028882;28;20663;-70
2021/12/25 10:59:17;;;;;;;1.53;1.27;;;0.10;99.90;;;;;;5028166;28;20208;-70
2021/12/25 11:01:50;;;;;;;1.97;1.77;;;0.30;99.90;;;;;;5028772;28;20212;-69
2021/12/25 11:04:29;;;;;;;2.70;1.60;;;0.50;99.90;;;;;;5028275;28;20764;-70
2021/12/25 11:06:57;;;;;;;1.47;1.37;;;0.60;99.90;;;;;;5028731;28;20239;-70
2021/12/25 11:09:24;;;;;;;2.83;1.17;;;0.80;99.90;;;;;;5028318;28;20715;-70
2021/12/25 11:12:16;;;;;;;1.50;1.40;;;0.90;99.90;;;;;;5028498;28;20715;-70
2021/12/25 11:14:42;;;;;;;1.70;1.43;;;1.00;99.90;;;;;;5028149;28;20207;-70
2021/12/25 11:17:24;;;;;;;1.97;1.33;;;1.10;99.90;;;;;;5028461;28;20270;-70
2021/12/25 11:19:59;;;;;;;1.37;1.27;;;1.20;99.90;;;;;;5028054;28;20614;-70
2021/12/25 11:22:27;;;;;;;2.67;1.40;;;1.30;99.90;;;;;;5028240;28;20211;-70
2021/12/25 11:24:57;;;;;;;1.80;1.20;;;1.40;99.90;;;;;;5028205;28;20234;-70
2021/12/25 11:27:25;;;;;;;3.43;1.53;;;1.40;99.90;;;;;;5028737;28;20229;-70
2021/12/25 11:29:52;;;;;;;2.10;1.43;;;1.40;99.90;;;;;;5027725;28;20687;-70
2021/12/25 11:32:21;;;;;;;0.93;0.93;;;1.40;99.90;;;;;;5027290;28;20749;-69
2021/12/25 11:34:48;;;;;;;1.23;0.70;;;1.40;99.90;;;;;;5028058;28;20212;-69
2021/12/25 11:37:17;;;;;;;0.50;0.50;;;1.30;99.90;;;;;;5028012;28;20290;-69
2021/12/25 11:39:44;;;;;;;0.50;0.50;;;1.40;99.90;;;;;;5028027;28;20278;-70
2021/12/25 11:42:13;;;;;;;0.77;0.77;;;1.40;99.90;;;;;;5028069;28;20204;-69
2021/12/25 11:44:42;;;;;;;0.80;0.63;;;1.40;99.90;;;;;;5028096;28;20208;-69
2021/12/25 11:47:28;;;;;;;0.97;0.73;;;1.30;99.90;;;;;;5027502;28;20703;-70
2021/12/25 11:49:58;;;;;;;2.27;0.77;;;1.20;99.90;;;;;;5027917;28;20203;-70
2021/12/25 11:52:31;;;;;;;0.63;0.60;;;1.40;99.90;;;;;;5028233;28;20240;-70
2021/12/25 11:55:26;;;;;;;1.13;0.77;;;1.40;99.90;;;;;;5028014;28;20225;-70
2021/12/25 11:58:02;;;;;;;0.63;0.63;;;1.20;99.90;;;;;;5026257;28;20200;-70
2021/12/25 12:00:38;;;;;;;0.63;0.50;;;1.20;99.90;;;;;;5027084;28;20291;-70
2021/12/25 12:03:05;;;;;;;0.77;0.40;;;1.10;99.90;;;;;;5027878;28;20193;-70
2021/12/25 12:05:35;;;;;;;1.20;0.50;;;1.10;99.90;;;;;;5028202;28;20213;-70
2021/12/25 12:08:09;;;;;;;0.60;0.30;;;1.10;99.90;;;;;;5027471;28;20676;-70
2021/12/25 12:10:55;;;;;;;0.60;0.47;;;1.00;99.90;;;;;;5027628;28;20745;-70
2021/12/25 12:13:26;;;;;;;1.53;0.50;;;0.90;99.90;;;;;;5027755;28;20367;-70
2021/12/25 12:15:55;;;;;;;0.67;0.63;;;0.80;99.90;;;;;;5027840;28;20243;-70
2021/12/25 12:18:37;;;;;;;1.83;0.70;;;0.80;99.90;;;;;;5027566;28;20794;-70
2021/12/25 12:23:56;;;;;;;1.03;0.73;;;0.70;99.90;;;;;;5025963;28;20702;-70
2021/12/25 12:26:52;;;;;;;1.07;0.70;;;0.70;99.90;;;;;;5027780;28;20325;-70
2021/12/25 12:29:47;;;;;;;0.87;0.83;;;0.70;99.90;;;;;;5027443;28;20744;-70
2021/12/25 12:32:37;;;;;;;0.77;0.60;;;0.90;99.90;;;;;;5028823;28;21044;-70
2021/12/25 12:35:05;;;;;;;0.97;0.73;;;0.90;99.90;;;;;;5031446;28;20201;-70
2021/12/25 12:37:33;;;;;;;0.80;0.50;;;1.10;99.90;;;;;;5031267;28;20236;-70
2021/12/25 12:40:31;;;;;;;1.07;0.40;;;1.20;99.90;;;;;;5031424;28;20259;-70
2021/12/25 12:43:02;;;;;;;1.77;0.87;;;1.20;99.90;;;;;;5024687;28;20209;-70
2021/12/25 12:45:32;;;;;;;0.93;0.47;;;1.60;99.90;;;;;;5031208;28;20652;-70
2021/12/25 12:48:11;;;;;;;1.17;0.40;;;1.80;99.90;;;;;;5031326;28;20263;-70
2021/12/25 12:50:39;;;;;;;1.50;0.70;;;2.00;99.90;;;;;;5031021;28;20268;-70
2021/12/25 12:53:07;;;;;;;0.83;0.77;;;2.20;99.90;;;;;;5031121;28;20286;-70
2021/12/25 12:55:38;;;;;;;0.70;0.70;;;2.30;99.90;;;;;;5031195;28;20209;-70
2021/12/25 12:58:17;;;;;;;1.77;0.70;;;2.40;99.90;;;;;;5030831;28;20240;-70
2021/12/25 13:00:47;;;;;;;0.57;0.40;;;2.40;99.90;;;;;;5031021;28;20204;-70
2021/12/25 13:03:15;;;;;;;1.67;0.70;;;2.40;99.90;;;;;;5030649;28;20262;-70
2021/12/25 13:05:47;;;;;;;1.80;0.70;;;2.40;99.90;;;;;;5030643;28;20664;-70
2021/12/25 13:08:17;;;;;;;2.33;0.70;;;2.30;99.90;;;;;;5030933;28;20286;-70
2021/12/25 13:10:50;;;;;;;0.70;0.70;;;2.30;99.90;;;;;;5030481;28;20225;-70
2021/12/25 13:13:22;;;;;;;0.87;0.60;;;2.10;99.90;;;;;;5030699;28;20220;-70
2021/12/25 13:15:56;;;;;;;0.80;0.70;;;2.00;99.90;;;;;;5030842;28;20200;-70
2021/12/25 13:18:29;;;;;;;1.20;0.93;;;1.70;99.90;;;;;;5030465;28;20608;-70
2021/12/25 13:20:56;;;;;;;1.30;0.90;;;1.50;99.90;;;;;;5030565;28;20197;-70
2021/12/25 13:23:25;;;;;;;1.30;1.10;;;1.40;99.90;;;;;;5030910;28;20223;-70
2021/12/25 13:25:56;;;;;;;2.07;0.80;;;1.20;99.90;;;;;;5030333;28;20699;-70
2021/12/25 13:28:24;;;;;;;0.97;0.87;;;1.20;99.90;;;;;;5030454;28;20734;-70
2021/12/25 13:30:53;;;;;;;2.93;2.37;;;1.10;99.90;;;;;;5030798;28;20208;-70
2021/12/25 13:33:23;;;;;;;3.40;3.10;;;1.00;99.90;;;;;;5030364;28;20236;-70
2021/12/25 13:35:59;;;;;;;2.23;2.03;;;1.00;99.90;;;;;;5030394;28;20238;-70
2021/12/25 13:38:27;;;;;;;2.63;1.30;;;1.00;99.90;;;;;;5030070;28;20244;-70
2021/12/25 13:40:55;;;;;;;4.00;1.90;;;0.90;99.90;;;;;;5029974;28;20205;-70
2021/12/25 13:43:22;;;;;;;1.27;1.17;;;0.80;99.90;;;;;;5029645;28;20576;-70
2021/12/25 13:45:55;;;;;;;0.97;0.87;;;0.80;99.90;;;;;;5030453;28;20286;-70
2021/12/25 13:48:22;;;;;;;0.70;0.53;;;0.90;99.90;;;;;;5030323;28;20221;-70
2021/12/25 13:50:50;;;;;;;3.53;1.00;;;0.90;99.90;;;;;;5030193;28;20225;-70